Time;durP1;ratioP1;P1;durP2;ratioP2;P2;SDS_P1;SDS_P2;PMS_P1;PMS_P2;Temp;Humidity;BMP_temperature;BMP_pressure;BME280_temperature;BME280_humidity;BME280_pressure;Samples;Min_cycle;Max_cycle;Signal;HPM_P1;HPM_P2
2021/04/03 00:00:50;;;;;;;45.85;43.45;;;22.20;99.90;;;;;;5092993;28;20411;-60
2021/04/03 00:03:20;;;;;;;44.35;42.05;;;22.10;99.90;;;;;;5091727;28;20119;-60
2021/04/03 00:05:49;;;;;;;44.00;41.50;;;22.00;99.90;;;;;;5092982;28;20055;-60
2021/04/03 00:08:17;;;;;;;42.53;40.33;;;22.10;99.90;;;;;;5092741;28;20096;-60
2021/04/03 00:10:57;;;;;;;41.67;39.42;;;22.20;99.90;;;;;;5092176;28;20099;-58
2021/04/03 00:13:29;;;;;;;41.08;38.92;;;22.60;99.90;;;;;;5092857;28;20526;-61
2021/04/03 00:15:57;;;;;;;39.45;37.63;;;22.60;99.90;;;;;;5092881;28;20024;-59
2021/04/03 00:18:24;;;;;;;41.05;39.05;;;22.70;99.90;;;;;;5093158;28;20128;-59
2021/04/03 00:20:52;;;;;;;39.42;37.42;;;22.80;99.90;;;;;;5092871;28;20031;-60
2021/04/03 00:23:22;;;;;;;39.03;37.05;;;22.70;99.90;;;;;;5091918;28;20099;-59
2021/04/03 00:25:51;;;;;;;36.70;34.63;;;22.80;99.90;;;;;;5094704;28;20503;-60
2021/04/03 00:28:20;;;;;;;37.22;35.42;;;22.90;99.90;;;;;;5096200;28;20032;-59
2021/04/03 00:30:47;;;;;;;36.00;34.17;;;22.70;99.90;;;;;;5096254;28;20028;-60
2021/04/03 00:33:15;;;;;;;36.47;34.78;;;22.80;99.90;;;;;;5096377;28;20089;-59
2021/04/03 00:35:46;;;;;;;36.42;34.42;;;22.90;99.90;;;;;;5096513;28;20099;-59
2021/04/03 00:38:14;;;;;;;28.88;27.63;;;23.40;99.90;;;;;;5096268;28;20028;-60
2021/04/03 00:40:43;;;;;;;25.35;24.27;;;23.50;99.90;;;;;;5096098;28;20074;-59
2021/04/03 00:43:20;;;;;;;23.00;22.10;;;23.70;99.90;;;;;;5096233;28;20441;-61
2021/04/03 00:45:48;;;;;;;23.95;22.60;;;23.90;99.90;;;;;;5096402;28;20071;-59
2021/04/03 00:48:17;;;;;;;25.30;24.20;;;23.90;99.90;;;;;;5095942;28;20024;-59
2021/04/03 00:50:48;;;;;;;24.25;23.25;;;23.60;99.90;;;;;;5096037;28;20103;-60
2021/04/03 00:53:18;;;;;;;21.02;20.23;;;24.00;99.90;;;;;;5095950;28;20095;-61
2021/04/03 00:55:47;;;;;;;19.20;18.30;;;24.00;99.90;;;;;;5096243;28;20024;-62
2021/04/03 00:58:15;;;;;;;17.52;16.70;;;24.30;99.90;;;;;;5095755;28;20035;-61
2021/04/03 01:00:43;;;;;;;14.80;14.10;;;24.70;99.90;;;;;;5095883;28;20095;-63
2021/04/03 01:03:10;;;;;;;15.50;14.90;;;24.80;99.90;;;;;;5095349;28;20043;-62
2021/04/03 01:05:38;;;;;;;13.30;12.82;;;24.80;99.90;;;;;;5095679;28;20024;-63
2021/04/03 01:08:05;;;;;;;12.88;12.30;;;24.80;99.90;;;;;;5095772;28;20023;-60
2021/04/03 01:10:39;;;;;;;11.88;11.38;;;24.50;99.90;;;;;;5095672;28;20028;-63
2021/04/03 01:13:24;;;;;;;11.70;11.20;;;24.50;99.90;;;;;;5094736;28;20040;-61
2021/04/03 01:16:19;;;;;;;10.80;10.30;;;24.60;99.90;;;;;;5095963;28;20077;-61
2021/04/03 01:19:01;;;;;;;11.50;11.00;;;24.60;99.90;;;;;;5095513;28;20024;-62
2021/04/03 01:21:47;;;;;;;11.25;10.80;;;24.60;99.90;;;;;;5095405;28;20427;-61
2021/04/03 01:24:51;;;;;;;10.30;9.90;;;24.60;99.90;;;;;;5095361;28;20035;-62
2021/04/03 01:27:20;;;;;;;9.40;9.00;;;25.30;99.90;;;;;;5095474;28;20032;-62
2021/04/03 01:30:05;;;;;;;10.00;9.50;;;25.60;99.90;;;;;;5095228;28;20032;-61
2021/04/03 01:32:41;;;;;;;10.20;9.70;;;25.40;99.90;;;;;;5095175;28;20037;-63
2021/04/03 01:35:13;;;;;;;9.82;9.35;;;25.30;99.90;;;;;;5095281;28;20055;-62
2021/04/03 01:37:54;;;;;;;9.20;8.80;;;25.40;99.90;;;;;;5092908;28;20411;-62
2021/04/03 01:40:24;;;;;;;9.10;8.70;;;25.70;99.90;;;;;;5095021;28;20060;-62
2021/04/03 01:43:03;;;;;;;8.52;8.02;;;26.00;99.90;;;;;;5094967;28;20430;-62
2021/04/03 01:45:31;;;;;;;7.85;7.43;;;26.00;99.90;;;;;;5094947;28;20097;-61
2021/04/03 01:48:00;;;;;;;7.90;7.60;;;25.60;99.90;;;;;;5094742;28;20428;-61
2021/04/03 01:50:28;;;;;;;7.88;7.47;;;25.40;99.90;;;;;;5094935;28;20017;-62
2021/04/03 01:52:56;;;;;;;7.90;7.40;;;25.20;99.90;;;;;;5094938;28;20108;-61
2021/04/03 01:55:25;;;;;;;7.38;7.07;;;25.10;99.90;;;;;;5093326;28;20433;-63
2021/04/03 01:57:53;;;;;;;7.63;7.22;;;25.30;99.90;;;;;;5094841;28;20027;-62
2021/04/03 02:00:27;;;;;;;7.18;6.88;;;25.60;99.90;;;;;;5095065;28;20081;-65
2021/04/03 02:02:56;;;;;;;7.13;6.82;;;26.00;99.90;;;;;;5094746;28;20016;-62
2021/04/03 02:05:24;;;;;;;6.60;6.30;;;26.10;99.90;;;;;;5094637;28;20020;-65
2021/04/03 02:07:53;;;;;;;7.03;6.63;;;26.30;99.90;;;;;;5094574;28;20020;-63
2021/04/03 02:10:27;;;;;;;7.10;6.78;;;26.30;99.90;;;;;;5094454;28;20106;-63
2021/04/03 02:12:54;;;;;;;7.57;7.05;;;26.30;99.90;;;;;;5094862;28;20066;-64
2021/04/03 02:15:26;;;;;;;8.15;7.65;;;26.40;99.90;;;;;;5094520;28;20020;-63
2021/04/03 02:17:56;;;;;;;7.45;7.15;;;26.50;99.90;;;;;;5094521;28;20095;-63
2021/04/03 02:20:25;;;;;;;7.30;6.90;;;26.50;99.90;;;;;;5094833;28;20024;-61
2021/04/03 02:22:52;;;;;;;7.70;7.20;;;26.50;99.90;;;;;;5094417;28;20031;-63
2021/04/03 02:25:20;;;;;;;6.55;6.35;;;26.40;99.90;;;;;;5094637;28;20060;-62
2021/04/03 02:27:47;;;;;;;6.82;6.50;;;26.20;99.90;;;;;;5094295;28;20012;-62
2021/04/03 02:30:22;;;;;;;7.32;6.85;;;26.30;99.90;;;;;;5094121;28;20445;-64
2021/04/03 02:32:51;;;;;;;7.55;7.00;;;26.10;99.90;;;;;;5094129;28;20046;-63
2021/04/03 02:35:21;;;;;;;6.25;5.95;;;26.20;99.90;;;;;;5094087;28;20411;-63
2021/04/03 02:37:52;;;;;;;7.43;7.00;;;26.20;99.90;;;;;;5094009;28;20115;-65
2021/04/03 02:40:22;;;;;;;8.02;7.63;;;26.00;99.90;;;;;;5093889;28;20044;-65
2021/04/03 02:43:14;;;;;;;6.10;5.80;;;26.00;99.90;;;;;;5093934;28;20024;-65
2021/04/03 02:46:00;;;;;;;5.70;5.40;;;26.00;99.90;;;;;;5094262;28;20515;-65
2021/04/03 02:48:31;;;;;;;6.07;5.78;;;26.20;99.90;;;;;;5093992;28;20035;-64
2021/04/03 02:51:02;;;;;;;6.25;5.95;;;26.20;99.90;;;;;;5093977;28;20530;-64
2021/04/03 02:53:33;;;;;;;6.30;6.00;;;26.00;99.90;;;;;;5092823;28;20522;-64
2021/04/03 02:56:06;;;;;;;6.38;6.05;;;26.10;99.90;;;;;;5093861;28;20083;-66
2021/04/03 02:58:36;;;;;;;6.70;6.30;;;26.20;99.90;;;;;;5093733;28;20511;-65
2021/04/03 03:01:07;;;;;;;6.65;6.22;;;26.40;99.90;;;;;;5093658;28;20034;-64
2021/04/03 03:03:36;;;;;;;6.00;5.65;;;26.40;99.90;;;;;;5093588;28;20507;-66
2021/04/03 03:06:05;;;;;;;6.40;6.00;;;26.40;99.90;;;;;;5093711;28;20044;-66
2021/04/03 03:08:34;;;;;;;6.07;5.65;;;26.40;99.90;;;;;;5093648;28;20050;-66
2021/04/03 03:11:03;;;;;;;5.93;5.68;;;26.50;99.90;;;;;;5093425;28;20054;-61
2021/04/03 03:13:34;;;;;;;6.40;5.93;;;26.70;99.90;;;;;;5093441;28;20021;-64
2021/04/03 03:16:06;;;;;;;6.10;5.70;;;26.50;99.90;;;;;;5093363;28;20023;-64
2021/04/03 03:18:34;;;;;;;5.47;5.20;;;26.70;99.90;;;;;;5093401;28;20028;-65
2021/04/03 03:21:01;;;;;;;5.43;5.22;;;26.70;99.90;;;;;;5093434;28;20469;-66
2021/04/03 03:23:29;;;;;;;5.40;5.10;;;26.70;99.90;;;;;;5093392;28;20023;-64
2021/04/03 03:25:59;;;;;;;5.40;5.20;;;26.60;99.90;;;;;;5093418;28;20484;-65
2021/04/03 03:28:27;;;;;;;5.90;5.60;;;26.80;99.90;;;;;;5093346;28;20024;-64
2021/04/03 03:30:55;;;;;;;5.78;5.57;;;27.00;99.90;;;;;;5093214;28;20028;-64
2021/04/03 03:33:23;;;;;;;5.80;5.40;;;27.00;99.90;;;;;;5093327;28;20016;-64
2021/04/03 03:35:50;;;;;;;5.65;5.30;;;26.80;99.90;;;;;;5093227;28;20019;-64
2021/04/03 03:38:18;;;;;;;5.93;5.70;;;26.70;99.90;;;;;;5093259;28;20422;-65
2021/04/03 03:40:48;;;;;;;6.03;5.80;;;26.80;99.90;;;;;;5093036;28;20068;-64
2021/04/03 03:43:17;;;;;;;6.18;5.90;;;26.90;99.90;;;;;;5093228;28;20468;-64
2021/04/03 03:45:46;;;;;;;6.28;5.88;;;26.90;99.90;;;;;;5093275;28;20028;-63
2021/04/03 03:48:13;;;;;;;5.90;5.50;;;27.00;99.90;;;;;;5093244;28;20028;-65
2021/04/03 03:50:40;;;;;;;5.85;5.57;;;27.20;99.90;;;;;;5092745;28;20031;-64
2021/04/03 03:53:09;;;;;;;5.55;5.35;;;27.20;99.90;;;;;;5093090;28;20024;-66
2021/04/03 03:55:36;;;;;;;5.25;4.95;;;27.20;99.90;;;;;;5093104;28;20012;-65
2021/04/03 03:58:04;;;;;;;5.00;4.80;;;27.00;99.90;;;;;;5093139;28;20020;-65
2021/04/03 04:00:31;;;;;;;5.70;5.30;;;27.00;99.90;;;;;;5094641;28;20416;-66
2021/04/03 04:02:58;;;;;;;6.00;5.40;;;27.00;99.90;;;;;;5096938;28;20028;-67
2021/04/03 04:05:26;;;;;;;5.78;5.47;;;26.90;99.90;;;;;;5097024;28;20020;-66
2021/04/03 04:07:53;;;;;;;5.70;5.40;;;26.80;99.90;;;;;;5095485;28;20020;-66
2021/04/03 04:10:21;;;;;;;5.30;4.90;;;26.70;99.90;;;;;;5096817;28;20024;-65
2021/04/03 04:12:49;;;;;;;5.32;5.13;;;26.80;99.90;;;;;;5095510;28;20021;-66
2021/04/03 04:15:16;;;;;;;5.40;5.18;;;26.70;99.90;;;;;;5096813;28;20023;-67
2021/04/03 04:17:44;;;;;;;5.70;5.40;;;26.50;99.90;;;;;;5096604;28;20020;-65
2021/04/03 04:20:12;;;;;;;5.40;5.20;;;26.50;99.90;;;;;;5096259;28;20477;-66
2021/04/03 04:22:39;;;;;;;5.85;5.50;;;26.60;99.90;;;;;;5096651;28;20024;-67
2021/04/03 04:25:07;;;;;;;5.53;5.30;;;26.60;99.90;;;;;;5096506;28;20496;-67
2021/04/03 04:27:35;;;;;;;6.13;5.72;;;26.60;99.90;;;;;;5096491;28;20024;-67
2021/04/03 04:30:09;;;;;;;5.50;5.30;;;26.60;99.90;;;;;;5096333;28;20061;-65
2021/04/03 04:32:40;;;;;;;5.47;5.18;;;26.50;99.90;;;;;;5095143;28;20380;-67
2021/04/03 04:35:10;;;;;;;5.47;5.18;;;26.50;99.90;;;;;;5096496;28;20028;-67
2021/04/03 04:37:39;;;;;;;5.55;5.30;;;26.50;99.90;;;;;;5096253;28;20107;-66
2021/04/03 04:40:08;;;;;;;5.45;5.25;;;26.70;99.90;;;;;;5096383;28;20048;-66
2021/04/03 04:42:35;;;;;;;7.88;7.45;;;26.60;99.90;;;;;;5096344;28;20020;-64
2021/04/03 04:45:03;;;;;;;5.95;5.60;;;26.50;99.90;;;;;;5095134;28;20027;-67
2021/04/03 04:47:30;;;;;;;6.00;5.70;;;26.40;99.90;;;;;;5096273;28;20472;-66
2021/04/03 04:49:57;;;;;;;5.85;5.65;;;26.50;99.90;;;;;;5095989;28;20028;-67
2021/04/03 04:52:24;;;;;;;5.88;5.57;;;26.50;99.90;;;;;;5096104;28;20024;-66
2021/04/03 04:54:52;;;;;;;5.78;5.57;;;26.40;99.90;;;;;;5095980;28;20370;-66
2021/04/03 04:57:22;;;;;;;5.97;5.57;;;26.60;99.90;;;;;;5096594;28;20052;-66
2021/04/03 04:59:49;;;;;;;;;;;26.50;99.90;;;;;;5096941;28;20055;-65
2021/04/03 05:02:16;;;;;;;6.25;5.80;;;26.40;99.90;;;;;;5095814;28;19927;-67
2021/04/03 05:04:44;;;;;;;5.88;5.40;;;26.30;99.90;;;;;;5094488;28;20602;-66
2021/04/03 05:07:11;;;;;;;6.07;5.78;;;26.20;99.90;;;;;;5095734;28;20038;-66
2021/04/03 05:09:38;;;;;;;6.40;6.00;;;26.20;99.90;;;;;;5095656;28;20039;-66
2021/04/03 05:12:06;;;;;;;6.32;5.93;;;26.00;99.90;;;;;;5093912;28;20031;-66
2021/04/03 05:14:34;;;;;;;6.10;5.80;;;25.90;99.90;;;;;;5095654;28;20024;-66
2021/04/03 05:17:01;;;;;;;6.05;5.72;;;26.00;99.90;;;;;;5094094;28;20384;-66
2021/04/03 05:19:29;;;;;;;6.20;5.80;;;26.00;99.90;;;;;;5095810;28;20138;-64
2021/04/03 05:21:56;;;;;;;6.10;5.80;;;26.00;99.90;;;;;;5095436;28;20027;-67
2021/04/03 05:24:24;;;;;;;6.93;6.53;;;26.00;99.90;;;;;;5093999;28;20085;-67
2021/04/03 05:26:51;;;;;;;6.75;6.35;;;25.80;99.90;;;;;;5095206;28;20024;-65
2021/04/03 05:29:18;;;;;;;6.75;6.40;;;25.80;99.90;;;;;;5095139;28;20036;-67
2021/04/03 05:31:46;;;;;;;7.05;6.55;;;25.80;99.90;;;;;;5095471;28;20032;-66
2021/04/03 05:34:13;;;;;;;6.43;6.03;;;25.70;99.90;;;;;;5095176;28;20021;-63
2021/04/03 05:36:41;;;;;;;6.70;6.40;;;25.60;99.90;;;;;;5095345;28;20133;-65
2021/04/03 05:39:08;;;;;;;6.72;6.40;;;25.60;99.90;;;;;;5093474;28;20055;-72
2021/04/03 05:41:36;;;;;;;6.75;6.35;;;25.50;99.90;;;;;;5095514;28;20023;-61
2021/04/03 05:44:03;;;;;;;6.30;6.00;;;25.40;99.90;;;;;;5094991;28;20030;-71
2021/04/03 05:46:31;;;;;;;6.30;6.00;;;25.40;99.90;;;;;;5094814;28;20032;-66
2021/04/03 05:49:01;;;;;;;6.72;6.30;;;25.30;99.90;;;;;;5093543;28;20055;-73
2021/04/03 05:51:28;;;;;;;6.80;6.50;;;25.20;99.90;;;;;;5094738;28;20525;-64
2021/04/03 05:53:56;;;;;;;7.05;6.75;;;25.10;99.90;;;;;;5094779;28;20028;-64
2021/04/03 05:56:23;;;;;;;6.50;6.20;;;25.10;99.90;;;;;;5094783;28;20027;-60
2021/04/03 05:58:51;;;;;;;6.25;5.97;;;25.10;99.90;;;;;;5094659;28;20035;-63
2021/04/03 06:01:18;;;;;;;6.63;6.28;;;25.00;99.90;;;;;;5094668;28;20477;-64
2021/04/03 06:03:46;;;;;;;6.88;6.47;;;24.80;99.90;;;;;;5094665;28;20024;-62
2021/04/03 06:06:13;;;;;;;6.65;6.35;;;24.70;99.90;;;;;;5094332;28;20020;-62
2021/04/03 06:08:41;;;;;;;7.45;7.05;;;24.70;99.90;;;;;;5094473;28;20031;-63
2021/04/03 06:11:12;;;;;;;7.15;6.75;;;24.70;99.90;;;;;;5094539;28;20031;-62
2021/04/03 06:13:41;;;;;;;7.20;6.80;;;24.60;99.90;;;;;;5094530;28;20107;-63
2021/04/03 06:16:44;;;;;;;7.15;6.85;;;24.60;99.90;;;;;;5093329;28;20020;-63
2021/04/03 06:19:22;;;;;;;7.75;7.45;;;24.60;99.90;;;;;;5052406;28;20572;-60
2021/04/03 06:21:57;;;;;;;6.72;6.47;;;24.50;99.90;;;;;;5094210;28;20027;-61
2021/04/03 06:24:30;;;;;;;7.32;6.93;;;24.40;99.90;;;;;;5093817;28;20020;-62
2021/04/03 06:27:16;;;;;;;7.30;6.90;;;24.20;99.90;;;;;;5094118;28;20024;-60
2021/04/03 06:29:47;;;;;;;7.70;7.30;;;24.20;99.90;;;;;;5094090;28;20040;-61
2021/04/03 06:32:33;;;;;;;8.07;7.50;;;24.20;99.90;;;;;;5093937;28;20103;-61
2021/04/03 06:35:00;;;;;;;7.85;7.40;;;23.90;99.90;;;;;;5094284;28;20495;-61
2021/04/03 06:37:40;;;;;;;7.90;7.60;;;23.90;99.90;;;;;;5094204;28;20024;-61
2021/04/03 06:40:10;;;;;;;9.25;8.75;;;23.90;99.90;;;;;;5093789;28;20100;-62
2021/04/03 06:42:52;;;;;;;9.30;8.80;;;23.90;99.90;;;;;;5092574;28;20028;-62
2021/04/03 06:45:30;;;;;;;9.18;8.77;;;23.80;99.90;;;;;;5093897;28;20019;-63
2021/04/03 06:48:09;;;;;;;10.27;9.60;;;23.70;99.90;;;;;;5094119;28;20032;-63
2021/04/03 06:50:39;;;;;;;9.10;8.70;;;23.50;99.90;;;;;;5094421;28;20031;-63
2021/04/03 06:53:12;;;;;;;9.18;8.68;;;23.50;99.90;;;;;;5092545;28;20066;-63
2021/04/03 06:55:41;;;;;;;10.55;9.70;;;23.40;99.90;;;;;;5094037;28;20411;-63
2021/04/03 06:58:09;;;;;;;8.95;8.57;;;23.30;99.90;;;;;;5093634;28;20031;-62
2021/04/03 07:00:37;;;;;;;8.82;8.43;;;23.30;99.90;;;;;;5092396;28;20111;-62
2021/04/03 07:03:17;;;;;;;9.60;9.18;;;23.30;99.90;;;;;;5092141;28;20028;-62
2021/04/03 07:05:46;;;;;;;10.00;9.35;;;23.20;99.90;;;;;;5093757;28;20099;-62
2021/04/03 07:08:14;;;;;;;9.40;8.90;;;23.10;99.90;;;;;;5092125;28;20028;-63
2021/04/03 07:10:41;;;;;;;9.60;9.10;;;23.10;99.90;;;;;;5093817;28;20016;-62
2021/04/03 07:13:13;;;;;;;10.43;9.70;;;23.00;99.90;;;;;;5093576;28;20038;-63
2021/04/03 07:15:41;;;;;;;10.13;9.73;;;23.00;99.90;;;;;;5093460;28;20047;-63
2021/04/03 07:18:10;;;;;;;10.70;10.20;;;22.90;99.90;;;;;;5092048;28;20112;-63
2021/04/03 07:20:38;;;;;;;11.00;10.43;;;22.70;99.90;;;;;;5093241;28;20089;-63
2021/04/03 07:23:17;;;;;;;11.43;10.80;;;22.70;99.90;;;;;;5092044;28;20024;-63
2021/04/03 07:25:45;;;;;;;12.90;12.30;;;22.60;99.90;;;;;;5093953;28;20020;-62
2021/04/03 07:28:15;;;;;;;12.70;12.20;;;22.40;99.90;;;;;;5091950;28;20161;-62
2021/04/03 07:30:45;;;;;;;14.63;14.02;;;22.30;99.90;;;;;;5093503;28;20024;-62
2021/04/03 07:33:21;;;;;;;14.80;14.20;;;22.30;99.90;;;;;;5093327;28;20491;-62
2021/04/03 07:35:50;;;;;;;15.60;14.90;;;22.30;99.90;;;;;;5097360;28;20022;-62
2021/04/03 07:38:26;;;;;;;16.75;16.00;;;22.30;99.90;;;;;;5097252;28;20028;-63
2021/04/03 07:40:56;;;;;;;17.45;16.60;;;22.20;99.90;;;;;;5096152;28;20040;-62
2021/04/03 07:43:43;;;;;;;18.50;17.50;;;22.20;99.90;;;;;;5098274;28;20059;-62
2021/04/03 07:46:21;;;;;;;19.42;18.60;;;22.10;99.90;;;;;;5097633;28;20044;-59
2021/04/03 07:48:57;;;;;;;20.98;19.98;;;22.10;99.90;;;;;;5097195;28;20036;-59
2021/04/03 07:51:24;;;;;;;21.25;20.05;;;21.90;99.90;;;;;;5095983;28;20077;-59
2021/04/03 07:54:03;;;;;;;22.05;21.15;;;21.80;99.90;;;;;;5097336;28;20024;-58
2021/04/03 07:56:51;;;;;;;24.60;23.55;;;21.70;99.90;;;;;;5097125;28;20016;-58
2021/04/03 07:59:38;;;;;;;26.95;25.85;;;21.60;99.90;;;;;;5097053;28;20473;-58
2021/04/03 08:02:07;;;;;;;27.38;25.92;;;21.60;99.90;;;;;;5097030;28;20427;-59
2021/04/03 08:04:34;;;;;;;28.55;27.33;;;21.60;99.90;;;;;;5097097;28;20092;-59
2021/04/03 08:07:03;;;;;;;30.05;28.67;;;21.50;99.90;;;;;;5095855;28;20473;-58
2021/04/03 08:09:35;;;;;;;32.05;30.63;;;21.40;99.90;;;;;;5095374;28;20476;-58
2021/04/03 08:12:04;;;;;;;33.65;32.15;;;21.40;99.90;;;;;;5096869;28;20473;-58
2021/04/03 08:14:33;;;;;;;37.25;35.42;;;21.20;99.90;;;;;;5097285;28;20021;-58
2021/04/03 08:17:01;;;;;;;39.72;37.92;;;21.20;99.90;;;;;;5096851;28;20030;-58
2021/04/03 08:19:31;;;;;;;40.47;38.65;;;21.10;99.90;;;;;;5096759;28;20107;-59
2021/04/03 08:21:59;;;;;;;42.88;40.95;;;21.20;99.90;;;;;;5097342;28;20024;-58
2021/04/03 08:24:26;;;;;;;46.05;43.95;;;21.20;99.90;;;;;;5095528;28;20052;-57
2021/04/03 08:26:54;;;;;;;47.83;45.53;;;21.10;99.90;;;;;;5096562;28;20032;-58
2021/04/03 08:29:22;;;;;;;49.47;46.97;;;21.00;99.90;;;;;;5096377;28;20020;-58
2021/04/03 08:31:50;;;;;;;52.05;49.60;;;21.10;99.90;;;;;;5096581;28;20103;-58
2021/04/03 08:34:18;;;;;;;52.70;49.88;;;21.10;99.90;;;;;;5096408;28;20382;-57
2021/04/03 08:36:46;;;;;;;52.65;50.10;;;21.00;99.90;;;;;;5096462;28;20016;-58
2021/04/03 08:39:16;;;;;;;55.17;52.47;;;21.10;99.90;;;;;;5096137;28;20036;-58
2021/04/03 08:41:47;;;;;;;;;;;21.10;99.90;;;;;;5096640;28;20053;-58
2021/04/03 08:44:26;;;;;;;55.80;53.00;;;21.00;99.90;;;;;;5096175;28;19904;-59
2021/04/03 08:46:58;;;;;;;57.25;54.45;;;20.90;99.90;;;;;;5095380;28;20031;-59
2021/04/03 08:49:34;;;;;;;56.38;53.60;;;20.90;99.90;;;;;;5096107;28;20093;-59
2021/04/03 08:52:03;;;;;;;56.88;53.90;;;20.90;99.90;;;;;;5096028;28;20070;-59
2021/04/03 08:54:40;;;;;;;58.20;55.10;;;20.80;99.90;;;;;;5095982;28;20070;-58
2021/04/03 08:57:26;;;;;;;58.78;55.75;;;20.80;99.90;;;;;;5095949;28;20500;-59
2021/04/03 08:59:56;;;;;;;58.92;55.67;;;20.80;99.90;;;;;;5096006;28;20102;-58
2021/04/03 09:02:23;;;;;;;58.30;55.15;;;20.80;99.90;;;;;;5094598;28;20036;-58
2021/04/03 09:04:51;;;;;;;59.58;56.38;;;20.80;99.90;;;;;;5095908;28;20423;-57
2021/04/03 09:07:38;;;;;;;61.05;57.75;;;20.80;99.90;;;;;;5095768;28;20039;-59
2021/04/03 09:10:10;;;;;;;61.08;57.67;;;20.80;99.90;;;;;;5095658;28;20388;-58
2021/04/03 09:12:38;;;;;;;62.33;58.95;;;20.70;99.90;;;;;;5095703;28;20380;-59
2021/04/03 09:15:07;;;;;;;62.67;59.35;;;20.70;99.90;;;;;;5095722;28;20019;-60
2021/04/03 09:17:35;;;;;;;63.72;60.42;;;20.70;99.90;;;;;;5095609;28;20043;-61
2021/04/03 09:20:17;;;;;;;62.53;59.15;;;20.60;99.90;;;;;;5095520;28;20515;-58
2021/04/03 09:22:45;;;;;;;63.40;60.10;;;20.60;99.90;;;;;;5095669;28;20058;-58
2021/04/03 09:25:18;;;;;;;62.20;58.58;;;20.60;99.90;;;;;;5095513;28;20034;-57
2021/04/03 09:28:04;;;;;;;62.67;59.28;;;20.50;99.90;;;;;;5094161;28;20024;-58
2021/04/03 09:30:43;;;;;;;62.20;58.90;;;20.50;99.90;;;;;;5095398;28;20032;-58
2021/04/03 09:33:26;;;;;;;63.67;60.17;;;20.50;99.90;;;;;;5095452;28;20023;-58
2021/04/03 09:36:07;;;;;;;66.22;62.58;;;20.50;99.90;;;;;;5095215;28;20016;-59
2021/04/03 09:38:37;;;;;;;64.20;60.65;;;20.40;99.90;;;;;;5095052;28;20024;-58
2021/04/03 09:41:28;;;;;;;64.17;60.50;;;20.50;99.90;;;;;;5095304;28;20024;-58
2021/04/03 09:43:56;;;;;;;64.20;60.58;;;20.50;99.90;;;;;;5095669;28;20465;-59
2021/04/03 09:46:23;;;;;;;64.30;60.75;;;20.50;99.90;;;;;;5095109;28;20034;-59
2021/04/03 09:48:51;;;;;;;64.78;61.10;;;20.50;99.90;;;;;;5094946;28;20074;-59
2021/04/03 09:51:18;;;;;;;66.13;62.45;;;20.40;99.90;;;;;;5095003;28;20020;-59
2021/04/03 09:53:51;;;;;;;67.28;63.55;;;20.40;99.90;;;;;;5093684;28;20489;-60
2021/04/03 09:56:19;;;;;;;66.25;62.55;;;20.40;99.90;;;;;;5094817;28;20488;-58
2021/04/03 09:58:47;;;;;;;67.03;63.20;;;20.30;99.90;;;;;;5093754;28;20024;-59
2021/04/03 10:01:17;;;;;;;64.97;61.17;;;20.30;99.90;;;;;;5095343;28;20032;-60
2021/04/03 10:03:44;;;;;;;65.53;61.90;;;20.30;99.90;;;;;;5094725;28;20027;-58
2021/04/03 10:06:11;;;;;;;64.57;60.97;;;20.20;99.90;;;;;;5094980;28;20380;-59
2021/04/03 10:08:39;;;;;;;63.15;59.85;;;20.20;99.90;;;;;;5094490;28;20032;-61
2021/04/03 10:11:07;;;;;;;66.03;62.42;;;20.20;99.90;;;;;;5094632;28;20058;-58
2021/04/03 10:13:34;;;;;;;66.03;62.17;;;20.20;99.90;;;;;;5094858;28;20065;-58
2021/04/03 10:16:01;;;;;;;66.50;62.78;;;20.20;99.90;;;;;;5094487;28;20048;-59
2021/04/03 10:18:29;;;;;;;66.22;62.72;;;20.20;99.90;;;;;;5094521;28;20016;-58
2021/04/03 10:20:56;;;;;;;64.40;61.00;;;20.30;99.90;;;;;;5094357;28;20056;-59
2021/04/03 10:23:23;;;;;;;67.05;63.50;;;20.30;99.90;;;;;;5094471;28;20020;-59
2021/04/03 10:25:51;;;;;;;63.08;59.45;;;20.20;99.90;;;;;;5094316;28;20016;-59
2021/04/03 10:28:18;;;;;;;61.50;58.10;;;20.30;99.90;;;;;;5092853;28;20542;-59
2021/04/03 10:30:46;;;;;;;64.65;61.03;;;20.20;99.90;;;;;;5094141;28;20031;-59
2021/04/03 10:33:13;;;;;;;67.00;63.30;;;20.30;99.90;;;;;;5094103;28;20028;-58
2021/04/03 10:35:40;;;;;;;66.90;63.20;;;20.40;99.90;;;;;;5094135;28;20103;-59
2021/04/03 10:38:08;;;;;;;66.60;63.08;;;20.20;99.90;;;;;;5094196;28;20491;-58
2021/04/03 10:40:35;;;;;;;65.18;61.67;;;20.30;99.90;;;;;;5093964;28;20052;-58
2021/04/03 10:43:03;;;;;;;65.05;61.55;;;20.30;99.90;;;;;;5094331;28;20400;-58
2021/04/03 10:45:30;;;;;;;65.15;61.45;;;20.20;99.90;;;;;;5093997;28;20024;-58
2021/04/03 10:47:58;;;;;;;63.75;60.17;;;20.20;99.90;;;;;;5094240;28;20045;-59
2021/04/03 10:50:25;;;;;;;62.92;59.47;;;20.20;99.90;;;;;;5093872;28;20383;-58
2021/04/03 10:52:53;;;;;;;63.63;60.22;;;20.20;99.90;;;;;;5094183;28;20027;-57
2021/04/03 10:55:20;;;;;;;63.20;59.88;;;20.20;99.90;;;;;;5092520;28;20427;-58
2021/04/03 10:57:47;;;;;;;62.03;58.83;;;20.20;99.90;;;;;;5093738;28;20120;-58
2021/04/03 11:00:15;;;;;;;61.60;58.38;;;20.20;99.90;;;;;;5094558;28;20373;-58
2021/04/03 11:02:42;;;;;;;61.55;58.45;;;20.10;99.90;;;;;;5093736;28;20016;-59
2021/04/03 11:05:10;;;;;;;63.38;60.08;;;20.10;99.90;;;;;;5093585;28;20081;-59
2021/04/03 11:07:38;;;;;;;64.07;60.72;;;20.10;99.90;;;;;;5093675;28;20057;-58
2021/04/03 11:10:05;;;;;;;63.67;60.17;;;20.00;99.90;;;;;;5093197;28;20538;-59
2021/04/03 11:12:33;;;;;;;61.38;57.95;;;20.00;99.90;;;;;;5093648;28;20043;-59
2021/04/03 11:15:00;;;;;;;63.15;59.80;;;19.90;99.90;;;;;;5093558;28;20025;-57
2021/04/03 11:17:27;;;;;;;64.82;61.42;;;19.80;99.90;;;;;;5093571;28;20051;-60
2021/04/03 11:19:55;;;;;;;64.78;61.38;;;19.90;99.90;;;;;;5093530;28;20024;-63
2021/04/03 11:22:24;;;;;;;67.72;64.03;;;19.80;99.90;;;;;;5094057;28;20479;-62
2021/04/03 11:24:52;;;;;;;67.72;64.07;;;19.80;99.90;;;;;;5093249;28;20458;-63
2021/04/03 11:27:20;;;;;;;67.63;63.72;;;19.70;99.90;;;;;;5093393;28;20601;-62
2021/04/03 11:29:49;;;;;;;69.30;65.55;;;19.70;99.90;;;;;;5093320;28;20491;-62
2021/04/03 11:32:16;;;;;;;69.60;65.97;;;19.70;99.90;;;;;;5093313;28;20427;-64
2021/04/03 11:34:43;;;;;;;70.65;66.95;;;19.70;99.90;;;;;;5092043;28;20462;-62
2021/04/03 11:37:11;;;;;;;69.00;65.45;;;19.60;99.90;;;;;;5093328;28;20020;-63
2021/04/03 11:39:38;;;;;;;69.60;65.90;;;19.50;99.90;;;;;;5092970;28;20120;-62
2021/04/03 11:42:08;;;;;;;70.18;66.40;;;19.40;99.90;;;;;;5093158;28;20492;-63
2021/04/03 11:44:36;;;;;;;71.60;67.70;;;19.40;99.90;;;;;;5093228;28;20024;-62
2021/04/03 11:47:03;;;;;;;74.75;70.65;;;19.30;99.90;;;;;;5091804;28;20111;-62
2021/04/03 11:49:30;;;;;;;76.97;72.75;;;19.30;99.90;;;;;;5093017;28;20020;-61
2021/04/03 11:51:58;;;;;;;75.95;71.85;;;19.20;99.90;;;;;;5093073;28;20035;-61
2021/04/03 11:54:25;;;;;;;77.28;73.07;;;19.10;99.90;;;;;;5093597;28;20020;-62
2021/04/03 11:56:52;;;;;;;72.57;68.65;;;19.10;99.90;;;;;;5093089;28;20023;-61
2021/04/03 11:59:20;;;;;;;74.43;70.57;;;19.10;99.90;;;;;;5091694;28;20031;-61
2021/04/03 12:01:47;;;;;;;73.38;69.57;;;19.10;99.90;;;;;;5093059;28;20016;-62
2021/04/03 12:04:14;;;;;;;75.07;70.95;;;19.10;99.90;;;;;;5093142;28;20039;-62
2021/04/03 12:06:42;;;;;;;77.70;73.50;;;19.10;99.90;;;;;;5092961;28;20028;-62
2021/04/03 12:09:09;;;;;;;75.47;71.47;;;19.10;99.90;;;;;;5092924;28;20024;-63
2021/04/03 12:11:36;;;;;;;74.60;70.60;;;19.00;99.90;;;;;;5093008;28;20016;-62
2021/04/03 12:14:04;;;;;;;75.15;71.10;;;19.10;99.90;;;;;;5092914;28;20103;-62
2021/04/03 12:16:33;;;;;;;73.13;69.28;;;19.20;99.90;;;;;;5093343;28;20099;-62
2021/04/03 12:19:00;;;;;;;73.95;70.05;;;19.20;99.90;;;;;;5092727;28;20439;-61
2021/04/03 12:21:29;;;;;;;75.13;71.13;;;19.10;99.90;;;;;;5094419;28;20082;-63
2021/04/03 12:23:56;;;;;;;76.05;72.15;;;19.20;99.90;;;;;;5096621;28;20066;-62
2021/04/03 12:26:24;;;;;;;73.57;69.65;;;19.10;99.90;;;;;;5096511;28;20036;-62
2021/04/03 12:28:51;;;;;;;76.80;72.78;;;19.10;99.90;;;;;;5096345;28;20032;-62
2021/04/03 12:31:18;;;;;;;75.00;70.82;;;19.20;99.90;;;;;;5096471;28;20020;-62
2021/04/03 12:33:46;;;;;;;79.20;75.10;;;19.10;99.90;;;;;;5096463;28;20111;-62
2021/04/03 12:36:14;;;;;;;77.45;73.55;;;19.10;99.90;;;;;;5096366;28;20030;-62
2021/04/03 12:38:41;;;;;;;78.57;74.38;;;19.20;99.90;;;;;;5096227;28;20024;-62
2021/04/03 12:41:08;;;;;;;77.40;73.38;;;19.20;99.90;;;;;;5096404;28;20435;-62
2021/04/03 12:43:36;;;;;;;79.30;75.20;;;19.40;99.90;;;;;;5096606;28;20024;-62
2021/04/03 12:46:04;;;;;;;79.88;75.40;;;19.40;99.90;;;;;;5096307;28;20024;-62
2021/04/03 12:48:32;;;;;;;73.00;69.07;;;19.40;99.90;;;;;;5096646;28;20096;-62
2021/04/03 12:51:01;;;;;;;73.38;69.35;;;19.40;99.90;;;;;;5094729;28;20028;-62